Time;durP1;ratioP1;P1;durP2;ratioP2;P2;SDS_P1;SDS_P2;PMS_P1;PMS_P2;Temp;Humidity;BMP_temperature;BMP_pressure;BME280_temperature;BME280_humidity;BME280_pressure;Samples;Min_cycle;Max_cycle;Signal;HPM_P1;HPM_P2
2022/03/12 00:01:52;;;;;;;;;;;9.90;25.10;;;;;;5059736;28;19927;-88
2022/03/12 00:04:17;;;;;;;;;;;9.90;25.20;;;;;;5077022;28;19908;-88
2022/03/12 00:06:43;;;;;;;;;;;10.00;25.20;;;;;;5077429;28;19923;-89
2022/03/12 00:09:08;;;;;;;;;;;9.90;25.20;;;;;;5076995;28;19955;-88
2022/03/12 00:11:34;;;;;;;;;;;9.90;25.20;;;;;;5059835;28;20225;-89
2022/03/12 00:14:02;;;;;;;;;;;9.90;25.20;;;;;;5077561;28;19915;-88
2022/03/12 00:16:28;;;;;;;;;;;9.90;25.30;;;;;;5078010;28;19927;-88
2022/03/12 00:18:55;;;;;;;;;;;9.80;25.30;;;;;;5058743;28;19958;-88
2022/03/12 00:21:22;;;;;;;;;;;9.80;25.30;;;;;;5059089;28;19990;-89
2022/03/12 00:23:50;;;;;;;;;;;9.80;25.30;;;;;;5058456;28;19959;-87
2022/03/12 00:26:16;;;;;;;;;;;9.80;25.30;;;;;;5059635;28;19916;-88
2022/03/12 00:28:42;;;;;;;;;;;9.80;25.30;;;;;;5059333;28;19954;-88
2022/03/12 00:31:08;;;;;;;;;;;9.80;25.20;;;;;;5059140;28;20341;-87
2022/03/12 00:33:33;;;;;;;;;;;9.80;25.10;;;;;;5058617;28;19947;-88
2022/03/12 00:36:00;;;;;;;;;;;9.80;25.00;;;;;;5076941;28;19924;-88
2022/03/12 00:38:26;;;;;;;;;;;9.80;25.00;;;;;;5076657;28;19908;-88
2022/03/12 00:40:51;;;;;;;;;;;9.80;25.00;;;;;;5076737;28;19963;-89
2022/03/12 00:43:18;;;;;;;;;;;9.80;25.00;;;;;;5058901;28;19963;-89
2022/03/12 00:45:43;;;;;;;;;;;9.80;25.10;;;;;;5076305;28;19927;-88
2022/03/12 00:48:09;;;;;;;;;;;9.80;25.00;;;;;;5058127;28;20006;-88
2022/03/12 00:50:34;;;;;;;;;;;9.80;25.00;;;;;;5057758;28;19917;-88
2022/03/12 00:53:00;;;;;;;;;;;9.70;25.00;;;;;;5075872;28;19912;-88
2022/03/12 00:55:26;;;;;;;;;;;9.70;25.00;;;;;;5076536;28;19915;-88
2022/03/12 00:57:51;;;;;;;;;;;9.70;25.00;;;;;;5058054;28;19976;-87
2022/03/12 01:00:19;;;;;;;;;;;9.70;25.10;;;;;;5077885;28;19962;-87
2022/03/12 01:02:45;;;;;;;;;;;9.60;25.00;;;;;;5057881;28;20058;-88
2022/03/12 01:05:13;;;;;;;;;;;9.60;25.00;;;;;;5057766;28;20235;-88
2022/03/12 01:07:38;;;;;;;;;;;9.60;25.10;;;;;;5075483;28;19997;-89
2022/03/12 01:10:04;;;;;;;;;;;9.50;25.20;;;;;;5075834;28;20404;-89
2022/03/12 01:12:30;;;;;;;;;;;9.50;25.20;;;;;;5058815;28;20275;-88
2022/03/12 01:14:56;;;;;;;;;;;9.40;25.20;;;;;;5076541;28;19960;-89
2022/03/12 01:17:22;;;;;;;;;;;9.40;25.20;;;;;;5080040;28;19912;-89
2022/03/12 01:19:47;;;;;;;;;;;9.40;25.20;;;;;;5061696;28;19912;-87
2022/03/12 01:22:19;;;;;;;;;;;9.30;25.20;;;;;;5057068;28;19912;-88
2022/03/12 01:24:45;;;;;;;;;;;9.30;25.30;;;;;;5057283;28;19919;-88
2022/03/12 01:27:10;;;;;;;;;;;9.30;25.30;;;;;;5057318;28;19920;-87
2022/03/12 01:29:36;;;;;;;;;;;9.30;25.30;;;;;;5058452;28;19912;-89
2022/03/12 01:32:01;;;;;;;;;;;9.20;25.30;;;;;;5057148;28;20280;-88
2022/03/12 01:34:27;;;;;;;;;;;9.20;25.20;;;;;;5075744;28;20336;-88
2022/03/12 01:36:52;;;;;;;;;;;9.20;25.30;;;;;;5075807;28;19925;-88
2022/03/12 01:39:18;;;;;;;;;;;9.10;25.20;;;;;;5075650;28;19955;-89
2022/03/12 01:41:43;;;;;;;;;;;9.20;25.20;;;;;;5057530;28;19920;-88
2022/03/12 01:44:12;;;;;;;;;;;9.20;25.20;;;;;;5061043;28;19913;-89
2022/03/12 01:46:41;;;;;;;;;;;9.20;25.00;;;;;;5059401;28;19912;-88
2022/03/12 01:49:08;;;;;;;;;;;9.10;25.00;;;;;;5078716;28;19955;-88
2022/03/12 01:51:34;;;;;;;;;;;9.10;24.90;;;;;;5078679;28;19952;-88
2022/03/12 01:54:01;;;;;;;;;;;9.10;24.90;;;;;;5060742;28;20264;-87
2022/03/12 01:56:28;;;;;;;;;;;9.20;24.90;;;;;;5059844;28;20372;-88
2022/03/12 01:58:54;;;;;;;;;;;9.20;24.90;;;;;;5078328;28;19912;-88
2022/03/12 02:01:20;;;;;;;;;;;9.20;24.90;;;;;;5059876;28;20370;-88
2022/03/12 02:03:47;;;;;;;;;;;9.20;24.90;;;;;;5061352;28;19913;-90
2022/03/12 02:06:16;;;;;;;;;;;9.20;24.80;;;;;;5078374;28;20360;-90
2022/03/12 02:08:43;;;;;;;;;;;9.20;24.80;;;;;;5059860;28;19934;-89
2022/03/12 02:11:08;;;;;;;;;;;9.20;24.80;;;;;;5060455;28;19920;-89
2022/03/12 02:13:37;;;;;;;;;;;9.20;24.80;;;;;;5078269;28;20007;-87
2022/03/12 02:16:06;;;;;;;;;;;9.10;24.90;;;;;;5061187;28;19912;-89
2022/03/12 02:18:31;;;;;;;;;;;9.10;24.80;;;;;;5078927;28;19916;-88
2022/03/12 02:20:57;;;;;;;;;;;9.10;24.80;;;;;;5043176;28;19913;-88
2022/03/12 02:23:23;;;;;;;;;;;9.10;24.80;;;;;;5043337;28;19908;-91
2022/03/12 02:25:48;;;;;;;;;;;9.10;24.80;;;;;;5059399;28;19919;-89
2022/03/12 02:28:15;;;;;;;;;;;9.10;24.70;;;;;;5080882;28;19984;-88
2022/03/12 02:30:48;;;;;;;;;;;9.20;24.70;;;;;;5079113;28;19908;-87
2022/03/12 02:33:14;;;;;;;;;;;9.20;24.70;;;;;;5065093;28;19916;-88
2022/03/12 02:35:42;;;;;;;;;;;9.20;24.70;;;;;;5062055;28;19915;-88
2022/03/12 02:38:07;;;;;;;;;;;9.20;24.80;;;;;;5061839;28;19924;-88
2022/03/12 02:40:33;;;;;;;;;;;9.10;24.70;;;;;;5081745;28;20331;-88
2022/03/12 02:43:00;;;;;;;;;;;9.10;24.70;;;;;;5081188;28;20003;-88
2022/03/12 02:45:27;;;;;;;;;;;9.10;24.60;;;;;;5063549;28;20299;-87
2022/03/12 02:47:54;;;;;;;;;;;9.10;24.50;;;;;;5080235;28;19925;-88
2022/03/12 02:50:20;;;;;;;;;;;9.10;24.60;;;;;;5080763;28;19929;-88
2022/03/12 02:52:46;;;;;;;;;;;9.20;24.60;;;;;;5062368;28;19927;-90
2022/03/12 02:55:13;;;;;;;;;;;9.20;24.50;;;;;;5062456;28;19960;-88
2022/03/12 02:57:40;;;;;;;;;;;9.20;24.50;;;;;;5081285;28;19915;-88
2022/03/12 03:00:08;;;;;;;;;;;9.20;24.50;;;;;;5063867;28;20319;-88
2022/03/12 03:02:40;;;;;;;;;;;9.20;24.50;;;;;;5064037;28;19909;-87
2022/03/12 03:05:44;;;;;;;;;;;9.20;24.40;;;;;;5062209;28;19916;-88
2022/03/12 03:08:05;;;;;;;;;;;9.20;24.40;;;;;;5080351;28;20334;-88
2022/03/12 03:10:34;;;;;;;;;;;9.20;24.30;;;;;;5062833;28;20271;-88
2022/03/12 03:13:21;;;;;;;;;;;9.30;24.40;;;;;;5060930;28;19923;-88
2022/03/12 03:16:03;;;;;;;;;;;9.30;24.30;;;;;;5064606;28;19973;-89
2022/03/12 03:18:30;;;;;;;;;;;9.30;24.20;;;;;;5063588;28;19916;-88
2022/03/12 03:20:58;;;;;;;;;;;9.30;24.10;;;;;;5062068;28;19908;-89
2022/03/12 03:23:25;;;;;;;;;;;9.40;24.00;;;;;;5080581;28;19916;-88
2022/03/12 03:25:51;;;;;;;;;;;9.40;24.00;;;;;;5081407;28;20285;-88
2022/03/12 03:28:17;;;;;;;;;;;9.50;24.00;;;;;;5062632;28;19923;-88
2022/03/12 03:30:44;;;;;;;;;;;9.50;23.80;;;;;;5080370;28;19934;-87
2022/03/12 03:33:10;;;;;;;;;;;9.50;23.80;;;;;;5045680;28;19916;-88
2022/03/12 03:35:38;;;;;;;;;;;9.50;23.70;;;;;;5063176;28;19908;-88
2022/03/12 03:38:04;;;;;;;;;;;9.60;23.60;;;;;;5061046;28;19966;-89
2022/03/12 03:40:30;;;;;;;;;;;9.60;23.60;;;;;;5061388;28;19913;-88
2022/03/12 03:42:55;;;;;;;;;;;9.70;23.40;;;;;;5062527;28;19923;-88
2022/03/12 03:45:22;;;;;;;;;;;9.70;23.40;;;;;;5061972;28;19913;-88
2022/03/12 03:47:48;;;;;;;;;;;9.70;23.40;;;;;;5079068;28;19924;-88
2022/03/12 03:50:16;;;;;;;;;;;9.80;23.40;;;;;;5074994;28;20055;-88
2022/03/12 03:52:41;;;;;;;;;;;9.80;23.30;;;;;;5060081;28;20311;-88
2022/03/12 03:55:07;;;;;;;;;;;9.80;23.30;;;;;;5039700;28;20039;-89
2022/03/12 03:57:32;;;;;;;;;;;9.90;23.30;;;;;;5060469;28;19917;-88
2022/03/12 03:59:58;;;;;;;;;;;9.90;23.30;;;;;;5058439;28;19927;-88
2022/03/12 04:02:23;;;;;;;;;;;9.90;23.30;;;;;;5072332;28;19996;-89
2022/03/12 04:04:52;;;;;;;;;;;9.90;23.30;;;;;;5056875;28;19917;-89
2022/03/12 04:07:18;;;;;;;;;;;10.00;23.40;;;;;;5038731;28;19960;-88
2022/03/12 04:09:44;;;;;;;;;;;9.90;23.30;;;;;;5057560;28;19917;-88
2022/03/12 04:12:09;;;;;;;;;;;10.00;23.30;;;;;;5056801;28;19913;-89
2022/03/12 04:14:35;;;;;;;;;;;10.00;23.20;;;;;;5066983;28;19948;-88
2022/03/12 04:17:01;;;;;;;;;;;10.00;23.20;;;;;;5059837;28;19909;-87
2022/03/12 04:19:30;;;;;;;;;;;10.00;23.20;;;;;;5058399;28;19923;-88
2022/03/12 04:21:57;;;;;;;;;;;10.00;23.20;;;;;;5057980;28;20287;-88
2022/03/12 04:24:25;;;;;;;;;;;10.00;23.20;;;;;;5058932;28;20020;-88
2022/03/12 04:26:51;;;;;;;;;;;9.90;23.20;;;;;;5058235;28;19913;-90
2022/03/12 04:29:18;;;;;;;;;;;9.90;23.20;;;;;;5058918;28;20015;-88
2022/03/12 04:31:46;;;;;;;;;;;9.90;23.20;;;;;;5077164;28;19957;-88
2022/03/12 04:34:13;;;;;;;;;;;9.90;23.20;;;;;;5076330;28;20411;-88
2022/03/12 04:36:41;;;;;;;;;;;9.90;23.20;;;;;;5058665;28;19909;-88
2022/03/12 04:39:11;;;;;;;;;;;9.90;23.30;;;;;;5058550;28;20002;-88
2022/03/12 04:41:38;;;;;;;;;;;9.80;23.30;;;;;;5075972;28;20307;-89
2022/03/12 04:44:04;;;;;;;;;;;9.80;23.20;;;;;;5076171;28;19985;-87
2022/03/12 04:46:29;;;;;;;;;;;9.80;23.20;;;;;;5075875;28;19917;-87
2022/03/12 04:48:55;;;;;;;;;;;9.90;23.30;;;;;;5075690;28;19916;-88
2022/03/12 04:51:21;;;;;;;;;;;9.80;23.30;;;;;;5074609;28;19916;-90
2022/03/12 04:53:46;;;;;;;;;;;9.80;23.40;;;;;;5057422;28;20318;-88
2022/03/12 04:56:12;;;;;;;;;;;9.80;23.30;;;;;;5057504;28;19908;-88
2022/03/12 04:58:37;;;;;;;;;;;9.80;23.40;;;;;;5075847;28;19955;-87
2022/03/12 05:01:04;;;;;;;;;;;9.80;23.40;;;;;;5056670;28;19935;-88
2022/03/12 05:03:29;;;;;;;;;;;9.80;23.50;;;;;;5057615;28;19973;-88
2022/03/12 05:05:56;;;;;;;;;;;9.80;23.40;;;;;;5056971;28;20011;-88
2022/03/12 05:08:22;;;;;;;;;;;9.80;23.40;;;;;;5058030;28;19937;-88
2022/03/12 05:10:52;;;;;;;;;;;9.70;23.50;;;;;;5057457;28;19915;-88
2022/03/12 05:13:22;;;;;;;;;;;9.80;23.50;;;;;;5075639;28;19909;-87
2022/03/12 05:15:52;;;;;;;;;;;9.70;23.60;;;;;;5075956;28;20364;-87
2022/03/12 05:18:18;;;;;;;;;;;9.80;23.60;;;;;;5057477;28;20007;-88
2022/03/12 05:20:44;;;;;;;;;;;9.80;23.60;;;;;;5075256;28;19913;-88
2022/03/12 05:23:11;;;;;;;;;;;9.70;23.70;;;;;;5074166;28;19909;-88
2022/03/12 05:25:41;;;;;;;;;;;9.70;23.70;;;;;;5057210;28;20542;-88
2022/03/12 05:28:08;;;;;;;;;;;9.80;23.70;;;;;;5058065;28;20314;-88
2022/03/12 05:30:34;;;;;;;;;;;9.80;23.80;;;;;;5076210;28;19917;-89
2022/03/12 05:33:00;;;;;;;;;;;9.80;23.80;;;;;;5058118;28;20313;-87
2022/03/12 05:35:25;;;;;;;;;;;9.80;23.80;;;;;;5076042;28;20003;-89
2022/03/12 05:37:51;;;;;;;;;;;9.80;23.90;;;;;;5057006;28;20355;-88
2022/03/12 05:40:19;;;;;;;;;;;9.80;23.90;;;;;;5076805;28;19924;-89
2022/03/12 05:42:47;;;;;;;;;;;9.90;23.80;;;;;;5076886;28;19908;-89
2022/03/12 05:45:15;;;;;;;;;;;9.90;23.90;;;;;;5058435;28;19931;-90
2022/03/12 05:47:41;;;;;;;;;;;10.00;23.90;;;;;;5058531;28;19915;-88
2022/03/12 05:50:10;;;;;;;;;;;10.10;23.90;;;;;;5038391;28;20302;-89
2022/03/12 05:52:40;;;;;;;;;;;10.00;23.80;;;;;;5073465;28;20020;-89
2022/03/12 05:55:08;;;;;;;;;;;10.10;23.90;;;;;;5075966;28;20175;-89
2022/03/12 05:57:33;;;;;;;;;;;10.20;23.90;;;;;;5057594;28;19920;-89
2022/03/12 06:00:02;;;;;;;;;;;10.30;23.90;;;;;;5067776;28;19923;-88
2022/03/12 06:02:29;;;;;;;;;;;10.30;24.00;;;;;;5063368;28;20035;-89
2022/03/12 06:04:57;;;;;;;;;;;10.50;24.00;;;;;;5042546;28;19924;-88
2022/03/12 06:07:24;;;;;;;;;;;10.60;24.00;;;;;;5069361;28;20291;-89
2022/03/12 06:09:50;;;;;;;;;;;10.70;23.90;;;;;;5076216;28;20291;-88
2022/03/12 06:12:20;;;;;;;;;;;10.70;23.80;;;;;;5056966;28;20054;-89
2022/03/12 06:14:51;;;;;;;;;;;10.80;23.70;;;;;;5076623;28;20009;-88
2022/03/12 06:17:18;;;;;;;;;;;10.70;23.70;;;;;;5076632;28;20318;-89
2022/03/12 06:19:43;;;;;;;;;;;10.70;23.60;;;;;;5058822;28;19924;-87
2022/03/12 06:22:09;;;;;;;;;;;10.70;23.70;;;;;;5058346;28;19909;-88
2022/03/12 06:24:34;;;;;;;;;;;10.70;23.80;;;;;;5057736;28;19920;-88
2022/03/12 06:27:00;;;;;;;;;;;10.60;23.90;;;;;;5058465;28;19909;-89
2022/03/12 06:29:25;;;;;;;;;;;10.70;24.00;;;;;;5075800;28;19916;-88
2022/03/12 06:31:52;;;;;;;;;;;10.80;24.20;;;;;;5075798;28;19912;-88
2022/03/12 06:34:18;;;;;;;;;;;11.00;24.30;;;;;;5058710;28;19935;-88
2022/03/12 06:36:44;;;;;;;;;;;11.30;24.20;;;;;;5057457;28;20007;-88
2022/03/12 06:39:09;;;;;;;;;;;11.60;24.10;;;;;;5075641;28;19913;-89
2022/03/12 06:41:43;;;;;;;;;;;11.80;23.70;;;;;;5057942;28;20011;-89
2022/03/12 06:44:09;;;;;;;;;;;12.00;23.40;;;;;;5075957;28;20004;-89
2022/03/12 06:46:35;;;;;;;;;;;12.30;23.20;;;;;;5057094;28;20425;-90
2022/03/12 06:49:01;;;;;;;;;;;12.40;22.80;;;;;;5057978;28;20027;-90
2022/03/12 06:51:27;;;;;;;;;;;12.40;22.80;;;;;;5059005;28;19916;-88
2022/03/12 06:53:55;;;;;;;;;;;12.50;22.70;;;;;;5057633;28;20367;-89
2022/03/12 06:56:21;;;;;;;;;;;12.50;22.70;;;;;;5076151;28;20272;-89
2022/03/12 06:58:47;;;;;;;;;;;12.50;22.60;;;;;;5058849;28;19917;-90
2022/03/12 07:01:12;;;;;;;;;;;12.60;22.70;;;;;;5075740;28;20482;-91
2022/03/12 07:03:38;;;;;;;;;;;12.70;22.90;;;;;;5058420;28;19923;-90
2022/03/12 07:06:03;;;;;;;;;;;13.00;23.00;;;;;;5076391;28;19986;-89
2022/03/12 07:08:29;;;;;;;;;;;13.30;23.10;;;;;;5077155;28;19908;-89
2022/03/12 07:10:56;;;;;;;;;;;13.50;22.90;;;;;;5075660;28;19912;-90
2022/03/12 07:13:22;;;;;;;;;;;13.70;22.90;;;;;;5042713;28;19935;-88
2022/03/12 07:15:49;;;;;;;;;;;13.90;22.80;;;;;;5080570;28;19912;-90
2022/03/12 07:18:15;;;;;;;;;;;14.20;22.80;;;;;;5061166;28;20708;-89
2022/03/12 07:20:41;;;;;;;;;;;14.50;22.90;;;;;;5061179;28;19951;-88
2022/03/12 07:23:07;;;;;;;;;;;14.90;22.70;;;;;;5061001;28;19932;-89
2022/03/12 07:25:33;;;;;;;;;;;15.30;22.40;;;;;;5061710;28;19916;-90
2022/03/12 07:27:58;;;;;;;;;;;15.70;22.20;;;;;;5079138;28;19913;-90
2022/03/12 07:30:25;;;;;;;;;;;16.00;21.60;;;;;;5061509;28;19912;-90
2022/03/12 07:32:50;;;;;;;;;;;16.30;21.30;;;;;;5078715;28;20368;-89
2022/03/12 07:35:17;;;;;;;;;;;16.60;21.10;;;;;;5079424;28;19916;-89
2022/03/12 07:37:43;;;;;;;;;;;16.80;20.90;;;;;;5061600;28;20412;-90
2022/03/12 07:40:09;;;;;;;;;;;17.30;20.90;;;;;;5079468;28;20003;-89
2022/03/12 07:42:35;;;;;;;;;;;17.60;20.70;;;;;;5061817;28;19919;-88
2022/03/12 07:45:01;;;;;;;;;;;17.90;20.30;;;;;;5061870;28;20356;-89
2022/03/12 07:47:26;;;;;;;;;;;18.20;20.10;;;;;;5061642;28;19912;-90
2022/03/12 07:49:52;;;;;;;;;;;18.40;20.10;;;;;;5057093;28;20260;-90
2022/03/12 07:52:17;;;;;;;;;;;18.70;20.00;;;;;;5064657;28;20274;-90
2022/03/12 07:54:43;;;;;;;;;;;19.10;19.80;;;;;;5057702;28;19952;-90
2022/03/12 07:57:08;;;;;;;;;;;19.30;19.80;;;;;;5056088;28;19920;-90
2022/03/12 07:59:35;;;;;;;;;;;19.60;19.40;;;;;;5056882;28;19913;-91
2022/03/12 08:02:01;;;;;;;;;;;19.90;19.40;;;;;;5057062;28;20283;-90
2022/03/12 08:04:26;;;;;;;;;;;20.20;19.60;;;;;;5058340;28;19916;-89
2022/03/12 08:06:52;;;;;;;;;;;20.40;18.60;;;;;;5058590;28;19967;-88
2022/03/12 08:09:18;;;;;;;;;;;20.50;18.50;;;;;;5041130;28;19963;-89
2022/03/12 08:11:43;;;;;;;;;;;20.70;18.40;;;;;;5058681;28;20319;-89
2022/03/12 08:14:15;;;;;;;;;;;20.80;18.10;;;;;;5061022;28;19926;-89
2022/03/12 08:16:41;;;;;;;;;;;21.00;17.70;;;;;;5060960;28;19963;-90
2022/03/12 08:19:07;;;;;;;;;;;21.20;18.00;;;;;;5061070;28;19956;-89
2022/03/12 08:21:33;;;;;;;;;;;21.30;17.30;;;;;;5060403;28;19956;-90
2022/03/12 08:24:02;;;;;;;;;;;21.30;17.40;;;;;;5060831;28;21280;-90
2022/03/12 08:26:28;;;;;;;;;;;21.40;17.40;;;;;;5071401;28;19909;-90
2022/03/12 08:28:54;;;;;;;;;;;21.40;17.10;;;;;;5058725;28;19929;-89
2022/03/12 08:31:20;;;;;;;;;;;21.60;17.20;;;;;;5060885;28;20334;-88
2022/03/12 08:33:45;;;;;;;;;;;21.70;17.00;;;;;;5075074;28;19916;-90
2022/03/12 08:36:11;;;;;;;;;;;21.80;17.20;;;;;;5071859;28;19916;-90
2022/03/12 08:38:37;;;;;;;;;;;22.00;17.40;;;;;;5058051;28;20451;-90
2022/03/12 08:41:05;;;;;;;;;;;22.10;17.10;;;;;;5038375;28;19917;-90
2022/03/12 08:43:32;;;;;;;;;;;22.30;17.20;;;;;;5056371;28;19920;-90
2022/03/12 08:45:58;;;;;;;;;;;22.50;17.20;;;;;;5038420;28;19917;-90
2022/03/12 08:48:23;;;;;;;;;;;22.80;17.30;;;;;;5068441;28;19942;-90
2022/03/12 08:50:48;;;;;;;;;;;22.90;16.80;;;;;;5065698;28;19924;-90
2022/03/12 08:53:18;;;;;;;;;;;23.00;16.80;;;;;;5057860;28;19912;-91
2022/03/12 08:55:45;;;;;;;;;;;23.10;16.80;;;;;;5055094;28;19931;-90
2022/03/12 08:58:10;;;;;;;;;;;23.20;16.90;;;;;;5045615;28;20421;-91
2022/03/12 09:00:36;;;;;;;;;;;23.30;16.70;;;;;;5051323;28;19920;-90
2022/03/12 09:03:04;;;;;;;;;;;23.30;16.50;;;;;;5047069;28;20412;-92
2022/03/12 09:05:29;;;;;;;;;;;23.40;16.60;;;;;;5050653;28;19917;-90
2022/03/12 09:07:56;;;;;;;;;;;23.40;16.70;;;;;;5048085;28;19983;-90
2022/03/12 09:10:23;;;;;;;;;;;23.50;16.80;;;;;;5052177;28;19923;-91
2022/03/12 09:12:53;;;;;;;;;;;23.70;16.80;;;;;;5068405;28;19924;-89
2022/03/12 09:15:21;;;;;;;;;;;23.80;16.70;;;;;;5068637;28;20360;-90
2022/03/12 09:17:46;;;;;;;;;;;23.80;16.70;;;;;;5034503;28;19917;-91
2022/03/12 09:20:13;;;;;;;;;;;23.90;16.90;;;;;;5044998;28;19912;-89
2022/03/12 09:22:39;;;;;;;;;;;24.10;16.80;;;;;;5045095;28;20316;-90
2022/03/12 09:25:08;;;;;;;;;;;24.20;16.80;;;;;;5062151;28;20347;-90
2022/03/12 09:27:34;;;;;;;;;;;24.20;16.90;;;;;;5069414;28;19921;-91
2022/03/12 09:29:59;;;;;;;;;;;24.30;16.80;;;;;;5042687;28;20332;-91
2022/03/12 09:32:25;;;;;;;;;;;24.30;16.60;;;;;;5039254;28;19929;-90
2022/03/12 09:34:51;;;;;;;;;;;24.40;16.70;;;;;;5041026;28;19963;-91
2022/03/12 09:37:16;;;;;;;;;;;24.50;16.60;;;;;;5040392;28;20031;-92
2022/03/12 09:39:42;;;;;;;;;;;24.70;16.60;;;;;;5067301;28;20331;-91
2022/03/12 09:42:08;;;;;;;;;;;24.70;16.40;;;;;;5049264;28;19917;-89
2022/03/12 09:44:33;;;;;;;;;;;24.80;16.40;;;;;;5058504;28;19954;-91
2022/03/12 09:46:59;;;;;;;;;;;25.00;16.30;;;;;;5059181;28;19927;-90
2022/03/12 09:49:24;;;;;;;;;;;25.00;16.10;;;;;;5077331;28;19909;-90
2022/03/12 09:51:50;;;;;;;;;;;25.10;16.10;;;;;;5058022;28;19927;-90
2022/03/12 09:54:18;;;;;;;;;;;25.10;15.90;;;;;;5060816;28;19909;-91
2022/03/12 09:56:47;;;;;;;;;;;25.10;16.10;;;;;;5086200;28;19959;-91
2022/03/12 09:59:13;;;;;;;;;;;25.20;16.20;;;;;;5065765;28;19995;-89
2022/03/12 10:01:38;;;;;;;;;;;25.30;16.20;;;;;;5064634;28;19927;-91
2022/03/12 10:04:04;;;;;;;;;;;25.50;16.20;;;;;;5058987;28;19908;-90
2022/03/12 10:06:31;;;;;;;;;;;25.60;15.90;;;;;;5057564;28;19913;-91
2022/03/12 10:08:56;;;;;;;;;;;25.70;15.90;;;;;;5056956;28;19912;-91
2022/03/12 10:11:22;;;;;;;;;;;25.70;16.00;;;;;;5074658;28;19916;-91
2022/03/12 10:13:48;;;;;;;;;;;25.70;15.80;;;;;;5054833;28;20012;-91
2022/03/12 10:16:14;;;;;;;;;;;25.80;15.90;;;;;;5037690;28;19916;-90
2022/03/12 10:18:41;;;;;;;;;;;25.90;15.90;;;;;;5037469;28;19932;-90
2022/03/12 10:21:07;;;;;;;;;;;26.10;16.00;;;;;;5055956;28;19940;-91
2022/03/12 10:23:34;;;;;;;;;;;26.20;15.80;;;;;;5056686;28;19925;-90
2022/03/12 10:25:59;;;;;;;;;;;26.20;16.00;;;;;;5056216;28;19955;-91
2022/03/12 10:28:25;;;;;;;;;;;26.40;16.10;;;;;;5062774;28;20306;-92
2022/03/12 10:30:53;;;;;;;;;;;26.70;16.00;;;;;;5064157;28;19957;-90
2022/03/12 10:33:23;;;;;;;;;;;26.70;15.60;;;;;;5082374;28;19927;-90
2022/03/12 10:35:50;;;;;;;;;;;26.50;15.20;;;;;;5066343;28;19909;-91
2022/03/12 10:38:17;;;;;;;;;;;26.50;15.40;;;;;;5031473;28;19917;-92
2022/03/12 10:40:44;;;;;;;;;;;26.50;15.60;;;;;;5052473;28;19908;-91
2022/03/12 10:43:13;;;;;;;;;;;26.70;15.60;;;;;;5046973;28;19947;-91
2022/03/12 10:45:41;;;;;;;;;;;26.80;15.50;;;;;;5061808;28;20047;-90
2022/03/12 10:48:06;;;;;;;;;;;26.70;15.50;;;;;;5084694;28;19920;-90
2022/03/12 10:50:36;;;;;;;;;;;26.70;15.40;;;;;;5068592;28;20025;-90
2022/03/12 10:53:05;;;;;;;;;;;26.80;15.70;;;;;;5068494;28;19921;-90
2022/03/12 10:55:33;;;;;;;;;;;26.90;15.50;;;;;;5084945;28;19921;-91
2022/03/12 10:58:05;;;;;;;;;;;27.10;15.40;;;;;;5068187;28;19916;-91
2022/03/12 11:00:40;;;;;;;;;;;27.20;15.60;;;;;;5068812;28;19920;-90
2022/03/12 11:03:14;;;;;;;;;;;27.30;15.20;;;;;;5067725;28;19951;-90
2022/03/12 11:05:43;;;;;;;;;;;27.20;15.10;;;;;;5066799;28;19923;-90
2022/03/12 11:08:22;;;;;;;;;;;27.20;15.10;;;;;;5075221;28;19920;-89
2022/03/12 11:11:12;;;;;;;;;;;27.20;15.40;;;;;;5061989;28;20364;-91
2022/03/12 11:13:44;;;;;;;;;;;27.30;15.50;;;;;;5060633;28;19924;-90
2022/03/12 11:16:15;;;;;;;;;;;27.50;15.60;;;;;;5059987;28;19956;-90
2022/03/12 11:18:48;;;;;;;;;;;27.80;15.60;;;;;;5078374;28;19946;-91
2022/03/12 11:21:24;;;;;;;;;;;27.70;15.20;;;;;;5085605;28;19924;-93
2022/03/12 11:23:49;;;;;;;;;;;27.70;15.20;;;;;;5051509;28;19948;-92
2022/03/12 11:26:15;;;;;;;;;;;27.70;15.40;;;;;;5066714;28;19965;-92
2022/03/12 11:28:43;;;;;;;;;;;27.80;15.40;;;;;;5053153;28;20007;-92
2022/03/12 11:31:10;;;;;;;;;;;28.00;15.80;;;;;;5059502;28;19982;-91
2022/03/12 11:33:36;;;;;;;;;;;28.20;16.20;;;;;;5040122;28;19952;-90
2022/03/12 11:36:06;;;;;;;;;;;28.40;16.20;;;;;;5044511;28;20323;-90
2022/03/12 11:38:32;;;;;;;;;;;28.30;16.20;;;;;;5035965;28;19923;-92
2022/03/12 11:41:25;;;;;;;;;;;28.30;16.40;;;;;;5049722;28;20000;-90
2022/03/12 11:43:50;;;;;;;;;;;28.30;16.50;;;;;;5048777;28;20390;-91
2022/03/12 11:46:16;;;;;;;;;;;28.10;16.60;;;;;;5076241;28;19951;-91
2022/03/12 11:48:42;;;;;;;;;;;28.10;16.70;;;;;;5044916;28;20323;-90
2022/03/12 11:51:23;;;;;;;;;;;28.20;16.60;;;;;;5048162;28;20077;-89
2022/03/12 11:53:49;;;;;;;;;;;28.10;16.50;;;;;;5067221;28;19951;-89
2022/03/12 11:56:15;;;;;;;;;;;28.00;16.70;;;;;;5052508;28;19920;-90
2022/03/12 11:58:41;;;;;;;;;;;28.00;16.70;;;;;;5076108;28;19912;-90
2022/03/12 12:01:06;;;;;;;;;;;28.00;16.60;;;;;;5059430;28;20265;-90
2022/03/12 12:03:31;;;;;;;;;;;27.80;16.90;;;;;;5058436;28;19975;-90
2022/03/12 12:05:57;;;;;;;;;;;27.70;17.10;;;;;;5057942;28;19963;-90
2022/03/12 12:08:24;;;;;;;;;;;27.50;17.40;;;;;;5046485;28;19916;-90
2022/03/12 12:10:54;;;;;;;;;;;27.40;17.50;;;;;;5051884;28;19917;-90
2022/03/12 12:13:20;;;;;;;;;;;27.30;17.50;;;;;;5057686;28;19916;-90
2022/03/12 12:15:46;;;;;;;;;;;27.40;17.70;;;;;;5057810;28;20275;-89
2022/03/12 12:18:12;;;;;;;;;;;27.50;17.70;;;;;;5058085;28;19912;-89
2022/03/12 12:20:38;;;;;;;;;;;27.60;17.90;;;;;;5057335;28;19916;-89
2022/03/12 12:23:04;;;;;;;;;;;27.60;17.80;;;;;;5041507;28;19924;-90
2022/03/12 12:25:31;;;;;;;;;;;27.50;17.90;;;;;;5075821;28;19920;-90
2022/03/12 12:27:56;;;;;;;;;;;27.50;18.10;;;;;;5076060;28;20417;-90
2022/03/12 12:30:24;;;;;;;;;;;27.60;18.20;;;;;;5075624;28;19950;-89
2022/03/12 12:32:50;;;;;;;;;;;27.60;18.00;;;;;;5057252;28;19916;-90
2022/03/12 12:35:20;;;;;;;;;;;27.40;18.20;;;;;;5057442;28;19916;-91
2022/03/12 12:37:58;;;;;;;;;;;27.30;18.20;;;;;;5075927;28;19912;-90
2022/03/12 12:40:27;;;;;;;;;;;27.00;18.30;;;;;;5057548;28;19920;-91
2022/03/12 12:42:54;;;;;;;;;;;27.10;18.50;;;;;;5057121;28;19988;-88
2022/03/12 12:45:27;;;;;;;;;;;27.00;18.50;;;;;;5075757;28;19917;-89
2022/03/12 12:48:15;;;;;;;;;;;27.10;18.60;;;;;;5074886;28;19917;-90
2022/03/12 12:51:01;;;;;;;;;;;26.90;18.50;;;;;;5075995;28;20330;-90
2022/03/12 12:53:28;;;;;;;;;;;26.80;18.80;;;;;;5075540;28;20403;-90
2022/03/12 12:56:13;;;;;;;;;;;26.70;18.80;;;;;;5075732;28;19967;-89
2022/03/12 12:58:59;;;;;;;;;;;26.70;18.80;;;;;;5075508;28;19909;-89
2022/03/12 13:01:39;;;;;;;;;;;26.70;19.00;;;;;;5056860;28;19994;-89
2022/03/12 13:04:09;;;;;;;;;;;26.80;18.90;;;;;;5057061;28;19913;-89
2022/03/12 13:06:41;;;;;;;;;;;26.70;18.90;;;;;;5056724;28;19917;-89
2022/03/12 13:09:08;;;;;;;;;;;26.70;18.50;;;;;;5057309;28;19966;-88
2022/03/12 13:11:40;;;;;;;;;;;26.50;18.60;;;;;;5056368;28;19924;-89
2022/03/12 13:14:15;;;;;;;;;;;26.20;18.40;;;;;;5057181;28;19920;-89
2022/03/12 13:16:47;;;;;;;;;;;25.90;18.70;;;;;;5044854;28;19923;-90
2022/03/12 13:19:28;;;;;;;;;;;25.70;19.00;;;;;;5059094;28;19913;-92
2022/03/12 13:21:58;;;;;;;;;;;25.60;19.30;;;;;;5044202;28;19961;-95
2022/03/12 13:24:23;;;;;;;;;;;25.20;19.30;;;;;;5052075;28;19912;-91
2022/03/12 13:26:49;;;;;;;;;;;24.60;19.80;;;;;;5077736;28;20233;-90
2022/03/12 13:29:19;;;;;;;;;;;24.10;20.30;;;;;;5070299;28;20339;-91
2022/03/12 13:31:48;;;;;;;;;;;23.70;20.80;;;;;;5046870;28;19921;-92
2022/03/12 13:34:15;;;;;;;;;;;23.20;21.40;;;;;;5036946;28;19959;-89
2022/03/12 13:36:44;;;;;;;;;;;22.80;21.80;;;;;;5035723;28;20008;-90
2022/03/12 13:39:10;;;;;;;;;;;22.60;22.10;;;;;;5042324;28;19939;-90
2022/03/12 13:41:37;;;;;;;;;;;22.30;22.30;;;;;;5037228;28;19924;-90
2022/03/12 13:44:03;;;;;;;;;;;22.20;22.70;;;;;;5055296;28;20042;-93
2022/03/12 13:46:29;;;;;;;;;;;22.00;22.90;;;;;;5055614;28;19982;-89
2022/03/12 13:48:59;;;;;;;;;;;21.90;23.10;;;;;;5056445;28;19913;-90
2022/03/12 13:51:25;;;;;;;;;;;21.70;23.40;;;;;;5046671;28;19963;-88
2022/03/12 13:53:54;;;;;;;;;;;21.50;23.60;;;;;;5052361;28;19913;-89
2022/03/12 13:56:21;;;;;;;;;;;21.40;23.80;;;;;;5056036;28;19974;-89
2022/03/12 13:58:46;;;;;;;;;;;21.30;24.00;;;;;;5056660;28;19912;-90
2022/03/12 14:01:29;;;;;;;;;;;21.30;24.30;;;;;;5056756;28;20287;-89
2022/03/12 14:03:55;;;;;;;;;;;21.20;24.30;;;;;;5074953;28;19909;-89
2022/03/12 14:06:27;;;;;;;;;;;21.10;24.40;;;;;;5058968;28;19969;-90
2022/03/12 14:08:54;;;;;;;;;;;21.00;24.60;;;;;;5078552;28;20359;-90
2022/03/12 14:11:30;;;;;;;;;;;21.00;24.50;;;;;;5095267;28;19924;-90
2022/03/12 14:13:59;;;;;;;;;;;20.90;24.30;;;;;;5092259;28;19908;-90
2022/03/12 14:16:26;;;;;;;;;;;20.80;24.20;;;;;;5056530;28;19924;-90
2022/03/12 14:18:55;;;;;;;;;;;20.80;24.30;;;;;;5055979;28;19913;-89
2022/03/12 14:21:34;;;;;;;;;;;20.80;24.40;;;;;;5054727;28;20274;-89
2022/03/12 14:24:30;;;;;;;;;;;20.80;24.50;;;;;;5062357;28;19915;-90